^^
Station Historical Data
Daily Summary for January 22, 2017 Units:  Metric    English   Both
« Previous Day
Next Day »
Daily Weekly Monthly Yearly Custom
  High: Low: Average:
Temperature: 35.9 °C 20.7 °C 26.7 °C
Dew Point: 10.5 °C -0.2 °C 4.9 °C
Humidity: 36% 14% 26%
Wind Speed: 27.4km/h 0km/h 7.4km/h
Wind Gust: 32.2km/h - -
Wind- - WSW
Pressure: 1010.7 hPa 1005.6 hPa -
Precipitation: 0 mm    
Historical Graphs
 
 
Tabular Data for January 22, 2017
Time Temperature Dew Point Pressure Wind Wind Speed Wind Gust Humidity Rainfall Rate (Hourly) solar Conditions
00:11 26.1 °C 2.7 °C 1007.3 hPa SW 14.3 km/h 17.7 km/h 22% 0 mm 0.0 W/m2
00:16 25.9 °C 2.6 °C 1007.3 hPa SW 11.1 km/h 14.5 km/h 22% 0 mm 0.0 W/m2
00:22 25.8 °C 2.5 °C 1007.3 hPa SW 9.7 km/h 12.9 km/h 22% 0 mm 0.0 W/m2
00:32 25.8 °C 3.1 °C 1007.3 hPa SW 9.7 km/h 17.7 km/h 23% 0 mm 0.0 W/m2
00:47 25.8 °C 3.1 °C 1007.3 hPa SW 9.7 km/h 19.3 km/h 23% 0 mm 0.0 W/m2
00:57 25.4 °C 2.8 °C 1007.3 hPa SW 13 km/h 16.1 km/h 23% 0 mm 0.0 W/m2
01:07 25.3 °C 3.3 °C 1007 hPa SW 16.3 km/h 16.3 km/h 24% 0 mm 0.0 W/m2
01:27 24.9 °C 2.9 °C 1007.3 hPa SW 17.7 km/h 20.9 km/h 24% 0 mm 0.0 W/m2
01:32 24.8 °C 3.4 °C 1007.3 hPa SW 16.3 km/h 19.3 km/h 25% 0 mm 0.0 W/m2
01:37 24.7 °C 3.3 °C 1007.3 hPa SW 13 km/h 17.7 km/h 25% 0 mm 0.0 W/m2
01:42 24.5 °C 3.2 °C 1007.3 hPa SW 14.3 km/h 16.1 km/h 25% 0 mm 0.0 W/m2
01:53 24.4 °C 3.1 °C 1007 hPa SW 14.3 km/h 17.7 km/h 25% 0 mm 0.0 W/m2
02:18 23.7 °C 3.6 °C 1007 hPa SW 4.7 km/h 8 km/h 27% 0 mm 0.0 W/m2
02:28 23.4 °C 3.3 °C 1006.7 hPa SW 7.9 km/h 8 km/h 27% 0 mm 0.0 W/m2
02:33 23.3 °C 3.2 °C 1006.7 hPa SW 4.7 km/h 9.7 km/h 27% 0 mm 0.0 W/m2
02:38 23.1 °C 3.1 °C 1006.7 hPa SW 4.7 km/h 6.4 km/h 27% 0 mm 0.0 W/m2
02:43 22.9 °C 3.4 °C 1006.3 hPa SW 9.7 km/h 11.3 km/h 28% 0 mm 0.0 W/m2
03:00 22.7 °C 3.2 °C 1006.3 hPa Calm     28% 0 mm 0.0 W/m2
03:05 22.6 °C 3.2 °C 1006.3 hPa Calm     28% 0 mm 0.0 W/m2
03:10 22.6 °C 3.2 °C 1006.3 hPa Calm     28% 0 mm 0.0 W/m2
03:15 22.7 °C 3.2 °C 1006.7 hPa SW 6.4 km/h 8 km/h 28% 0 mm 0.0 W/m2
03:20 23.1 °C 3.6 °C 1007.3 hPa SW 6.4 km/h 11.3 km/h 28% 0 mm 0.0 W/m2
03:25 23.3 °C 3.2 °C 1006.7 hPa Calm     27% 0 mm 0.0 W/m2
03:30 23.3 °C 3.2 °C 1006.3 hPa Calm     27% 0 mm 0.0 W/m2
03:36 23.2 °C 3.7 °C 1006.3 hPa Calm     28% 0 mm 0.0 W/m2
03:41 22.9 °C 3.4 °C 1006.3 hPa Calm     28% 0 mm 0.0 W/m2
03:46 22.7 °C 3.2 °C 1006.3 hPa Calm     28% 0 mm 0.0 W/m2
03:51 22.4 °C 3.5 °C 1006.7 hPa Calm     29% 0 mm 0.0 W/m2
04:01 22 °C 3.6 °C 1006.3 hPa Calm     30% 0 mm 0.0 W/m2
04:11 21.8 °C 3.5 °C 1006.7 hPa Calm     30% 0 mm 0.0 W/m2
04:16 21.6 °C 3.7 °C 1006.3 hPa Calm     31% 0 mm 0.0 W/m2
04:22 21.6 °C 3.7 °C 1006.3 hPa Calm     31% 0 mm 0.0 W/m2
04:27 21.6 °C 3.7 °C 1006.3 hPa Calm     31% 0 mm 0.0 W/m2
04:32 21.7 °C 3.8 °C 1006.3 hPa Calm     31% 0 mm 0.0 W/m2
04:38 21.6 °C 3.7 °C 1006.3 hPa Calm     31% 0 mm 0.0 W/m2
04:43 21.4 °C 3.6 °C 1006.3 hPa Calm     31% 0 mm 0.0 W/m2
04:48 21.2 °C 3.8 °C 1006.3 hPa Calm     32% 0 mm 0.0 W/m2
04:53 21.1 °C 3.8 °C 1006.3 hPa Calm     32% 0 mm 0.0 W/m2
04:59 21.1 °C 3.8 °C 1006.3 hPa Calm     32% 0 mm 0.0 W/m2
05:05 21.1 °C 3.8 °C 1006.3 hPa Calm     32% 0 mm 0.0 W/m2
05:15 21 °C 4.1 °C 1006.7 hPa Calm     33% 0 mm 0.0 W/m2
05:20 20.9 °C 4 °C 1006.7 hPa Calm     33% 0 mm 0.0 W/m2
05:31 20.7 °C 3.8 °C 1006.7 hPa Calm     33% 0 mm 0.0 W/m2
05:36 20.7 °C 4.3 °C 1006.7 hPa Calm     34% 0 mm 0.0 W/m2
05:41 20.7 °C 3.8 °C 1006.7 hPa Calm     33% 0 mm 0.0 W/m2
05:46 20.8 °C 3.9 °C 1006.7 hPa Calm     33% 0 mm 0.0 W/m2
05:51 20.9 °C 4 °C 1006.7 hPa Calm     33% 0 mm 0.0 W/m2
05:56 20.8 °C 3.9 °C 1006.7 hPa SW 9.7 km/h 9.7 km/h 33% 0 mm 0.0 W/m2
06:07 20.9 °C 4 °C 1007 hPa SW 6.4 km/h 8 km/h 33% 0 mm 0.0 W/m2
06:27 21.6 °C 4.2 °C 1007 hPa SW 7.9 km/h 11.3 km/h 32% 0 mm 23.0 W/m2
06:38 21.6 °C 4.2 °C 1007 hPa SW 4.7 km/h 8 km/h 32% 0 mm 30.0 W/m2
06:58 21.7 °C 3.8 °C 1007.3 hPa Calm     31% 0 mm 53.0 W/m2
07:04 21.7 °C 3.8 °C 1007.3 hPa Calm     31% 0 mm 83.0 W/m2
07:20 22.3 °C 2.9 °C 1007.7 hPa SW 11.1 km/h 14.5 km/h 28% 0 mm 107.0 W/m2
07:43 22.5 °C 3.1 °C 1008 hPa SW 7.9 km/h 12.9 km/h 28% 0 mm 120.0 W/m2
08:03 22.9 °C 2.9 °C 1008.4 hPa SW 9.7 km/h 11.3 km/h 27% 0 mm 125.0 W/m2
09:23 25.6 °C 2.9 °C 1007.7 hPa Calm     23% 0 mm 207.0 W/m2
10:22 30 °C 0.5 °C 1007 hPa SSW 9.7 km/h 14.5 km/h 15% 0 mm 315.0 W/m2
10:33 30.3 °C -0.2 °C 1007 hPa SSW 11.1 km/h 16.1 km/h 14% 0 mm 288.0 W/m2
11:12 31.6 °C 0.9 °C 1007.7 hPa West 13 km/h 19.3 km/h 14% 0 mm 918.0 W/m2
11:33 32.3 °C 1.4 °C 1008 hPa West 7.9 km/h 12.9 km/h 14% 0 mm 696.0 W/m2
11:43 32.9 °C 1.9 °C 1008 hPa West 13 km/h 19.3 km/h 14% 0 mm 497.0 W/m2
11:49 32.8 °C 1.8 °C 1008 hPa WNW 27.4 km/h 27.4 km/h 14% 0 mm 610.0 W/m2
11:55 32.9 °C 1.9 °C 1008.4 hPa NW 19.5 km/h 29 km/h 14% 0 mm 508.0 W/m2
12:03 33.3 °C 2.2 °C 1008 hPa NW 9.7 km/h 19.3 km/h 14% 0 mm 1102.0 W/m2
12:08 33.4 °C 2.3 °C 1008 hPa NW 17.7 km/h 22.5 km/h 14% 0 mm 1137.0 W/m2
12:14 33.4 °C 2.3 °C 1008 hPa NW 16.3 km/h 20.9 km/h 14% 0 mm 1230.0 W/m2
12:20 33.4 °C 2.3 °C 1008 hPa WNW 7.9 km/h 19.3 km/h 14% 0 mm 1230.0 W/m2
12:32 33.8 °C 2.6 °C 1008 hPa WNW 11.1 km/h 16.1 km/h 14% 0 mm 654.0 W/m2
12:41 33.8 °C 3.6 °C 1007.7 hPa NW 16.3 km/h 20.9 km/h 15% 0 mm 547.0 W/m2
13:08 35.2 °C 4.7 °C 1007.7 hPa WNW 9.7 km/h 11.3 km/h 15% 0 mm 872.0 W/m2
13:24 35.5 °C 5.8 °C 1007.3 hPa Calm   11.3 km/h 16% 0 mm 1107.0 W/m2
13:39 35.9 °C 5.2 °C 1007 hPa WNW 7.9 km/h 19.3 km/h 15% 0 mm 1204.0 W/m2
13:54 35.7 °C 6 °C 1007 hPa NW 13 km/h 27.4 km/h 16% 0 mm 519.0 W/m2
14:09 35.6 °C 6.8 °C 1007 hPa NW 14.3 km/h 25.7 km/h 17% 0 mm 438.0 W/m2
14:24 35.4 °C 6.6 °C 1006.7 hPa NW 1.4 km/h 16.1 km/h 17% 0 mm 411.0 W/m2
15:24 34.3 °C 8.8 °C 1006.3 hPa WNW 20.9 km/h 27.4 km/h 21% 0 mm 149.0 W/m2
15:54 33.7 °C 10.3 °C 1006.7 hPa West 25.9 km/h 32.2 km/h 24% 0 mm 283.0 W/m2
16:10 33.4 °C 9.4 °C 1006.7 hPa West 11.1 km/h 17.7 km/h 23% 0 mm 151.0 W/m2
16:25 33.3 °C 9.4 °C 1006.3 hPa West 19.5 km/h 22.5 km/h 23% 0 mm 65.0 W/m2
16:40 32.3 °C 10.3 °C 1006.3 hPa West 20.9 km/h 27.4 km/h 26% 0 mm 86.0 W/m2
17:05 32.4 °C 9.8 °C 1005.6 hPa West 13 km/h 16.1 km/h 25% 0 mm 276.0 W/m2
18:01 31.8 °C 7.5 °C 1006.3 hPa SW 17.7 km/h 22.5 km/h 22% 0 mm 128.0 W/m2
18:11 31.4 °C 7.8 °C 1006.3 hPa SW 19.5 km/h 19.5 km/h 23% 0 mm 118.0 W/m2
18:26 31.2 °C 8.2 °C 1006.7 hPa SW 14.3 km/h 22.5 km/h 24% 0 mm 104.0 W/m2
18:36 30.9 °C 8 °C 1006.7 hPa SSW 14.3 km/h 17.7 km/h 24% 0 mm 63.0 W/m2
18:46 30.6 °C 8.3 °C 1006.7 hPa SSW 11.1 km/h 19.3 km/h 25% 0 mm 54.0 W/m2
19:12 30.4 °C 8.7 °C 1007 hPa SSW 7.9 km/h 11.3 km/h 26% 0 mm 21.0 W/m2
19:37 30.1 °C 9 °C 1007.3 hPa SSW 11.1 km/h 14.5 km/h 27% 0 mm 7.0 W/m2
19:43 30 °C 9 °C 1007.3 hPa SSW 6.4 km/h 11.3 km/h 27% 0 mm 0.0 W/m2
19:49 30 °C 9 °C 1007.3 hPa SSW 7.9 km/h 11.3 km/h 27% 0 mm 0.0 W/m2
19:54 29.9 °C 8.9 °C 1007.3 hPa SSW 6.4 km/h 8 km/h 27% 0 mm 0.0 W/m2
20:20 29.9 °C 9.4 °C 1007.3 hPa Calm     28% 0 mm 0.0 W/m2
20:31 29.9 °C 9.4 °C 1007.7 hPa Calm     28% 0 mm 0.0 W/m2
20:42 29.8 °C 9.9 °C 1007.7 hPa Calm     29% 0 mm 0.0 W/m2
20:54 29.8 °C 9.9 °C 1008 hPa Calm     29% 0 mm 0.0 W/m2
21:16 29.8 °C 9.9 °C 1008.7 hPa Calm     29% 0 mm 0.0 W/m2
21:34 27 °C 9.4 °C 1009.7 hPa SW 14.3 km/h 17.7 km/h 33% 0 mm 0.0 W/m2
22:05 26.6 °C 9.9 °C 1010.7 hPa Calm     35% 0 mm 0.0 W/m2
23:37 26.8 °C 10.5 °C 1010 hPa SSW 11.1 km/h 12.9 km/h 36% 0 mm 0.0 W/m2
23:52 26.7 °C 10.4 °C 1010.4 hPa SSW 6.4 km/h 8 km/h 36% 0 mm 0.0 W/m2
23:58 26.8 °C 10.1 °C 1010.4 hPa SSW 11.1 km/h 14.5 km/h 35% 0 mm 0.0 W/m2
Canyon Roadhouse, Fishriver Canyon, Namibia
Compliments of Weather Underground - 2.25 mb